createdAt,value
2022-09-12T00:01:11.057Z,47.47
2022-09-12T00:03:38.590Z,47.08
2022-09-12T00:06:09.011Z,48.20
2022-09-12T00:08:35.332Z,50.15
2022-09-12T00:11:04.493Z,52.63
2022-09-12T00:13:31.129Z,49.50
2022-09-12T00:15:57.534Z,46.33
2022-09-12T00:18:23.814Z,44.45
2022-09-12T00:20:50.208Z,47.22
2022-09-12T00:23:16.462Z,47.13
2022-09-12T00:25:46.560Z,51.42
2022-09-12T00:28:13.566Z,50.38
2022-09-12T00:30:40.535Z,55.65
2022-09-12T00:33:06.951Z,51.22
2022-09-12T00:35:33.354Z,51.47
2022-09-12T00:37:59.577Z,48.30
2022-09-12T00:40:27.242Z,59.40
2022-09-12T00:42:53.610Z,52.78
2022-09-12T00:45:23.002Z,52.78
2022-09-12T00:47:49.382Z,52.97
2022-09-12T00:50:16.316Z,59.08
2022-09-12T00:52:42.549Z,53.22
2022-09-12T00:55:24.167Z,54.78
2022-09-12T00:57:55.611Z,55.22
2022-09-12T01:00:24.247Z,50.03
2022-09-12T01:02:52.894Z,56.47
2022-09-12T01:05:20.092Z,76.00
2022-09-12T01:07:50.031Z,65.28
2022-09-12T01:10:16.823Z,65.10
2022-09-12T01:12:43.529Z,75.78
2022-09-12T01:15:09.804Z,65.85
2022-09-12T01:17:48.488Z,62.85
2022-09-12T01:20:31.478Z,74.60
2022-09-12T01:23:25.503Z,75.65
2022-09-12T01:25:54.693Z,56.58
2022-09-12T01:28:32.556Z,62.63
2022-09-12T01:31:07.660Z,54.63
2022-09-12T01:33:36.393Z,58.63
2022-09-12T01:36:03.559Z,61.10
2022-09-12T01:38:29.805Z,58.78
2022-09-12T01:40:58.981Z,58.85
2022-09-12T01:43:26.646Z,60.17
2022-09-12T01:45:58.359Z,57.72
2022-09-12T01:48:27.320Z,66.45
2022-09-12T01:51:00.164Z,58.75
2022-09-12T01:53:29.578Z,71.95
2022-09-12T01:56:00.246Z,69.00
2022-09-12T01:58:29.106Z,74.82
2022-09-12T02:00:59.822Z,71.03
2022-09-12T02:03:32.864Z,68.95
2022-09-12T02:06:12.707Z,64.30
2022-09-12T02:08:42.451Z,68.32
2022-09-12T02:11:09.742Z,72.47
2022-09-12T02:13:51.438Z,63.33
2022-09-12T02:16:36.867Z,67.70
2022-09-12T02:19:07.377Z,63.92
2022-09-12T02:21:36.095Z,77.03
2022-09-12T02:24:02.829Z,75.45
2022-09-12T02:26:31.188Z,80.15
2022-09-12T02:28:57.495Z,101.13
2022-09-12T02:31:39.073Z,97.03
2022-09-12T02:34:25.522Z,91.60
2022-09-12T02:37:07.508Z,84.50
2022-09-12T02:39:33.769Z,76.28
2022-09-12T02:42:01.662Z,84.03
2022-09-12T02:44:29.635Z,72.93
2022-09-12T02:46:58.490Z,79.40
2022-09-12T02:49:24.728Z,80.00
2022-09-12T02:51:51.072Z,74.18
2022-09-12T02:54:17.801Z,70.30
2022-09-12T02:56:45.126Z,71.10
2022-09-12T02:59:14.179Z,81.30
2022-09-12T03:01:40.395Z,81.80
2022-09-12T03:04:06.835Z,88.38
2022-09-12T03:06:51.436Z,76.88
2022-09-12T03:09:20.180Z,73.30
2022-09-12T03:11:52.160Z,82.57
2022-09-12T03:14:24.329Z,68.90
2022-09-12T03:16:51.121Z,82.25
2022-09-12T03:19:35.731Z,82.40
2022-09-12T03:22:14.325Z,86.60
2022-09-12T03:24:46.458Z,82.38
2022-09-12T03:27:18.688Z,86.70
2022-09-12T03:29:46.086Z,89.40
2022-09-12T03:32:12.377Z,96.07
2022-09-12T03:34:38.986Z,98.28
2022-09-12T03:37:05.283Z,92.60
2022-09-12T03:39:31.732Z,99.53
2022-09-12T03:41:58.030Z,113.22
2022-09-12T03:44:24.698Z,114.43
2022-09-12T03:46:50.942Z,96.43
2022-09-12T03:49:17.523Z,111.20
2022-09-12T03:51:43.719Z,93.40
2022-09-12T03:54:10.456Z,106.88
2022-09-12T03:56:37.019Z,111.45
2022-09-12T03:59:06.706Z,93.60
2022-09-12T04:01:32.995Z,97.85
2022-09-12T04:03:59.246Z,114.63
2022-09-12T04:06:25.511Z,108.25
2022-09-12T04:08:52.691Z,112.82
2022-09-12T04:11:19.806Z,110.93
2022-09-12T04:13:46.534Z,112.25
2022-09-12T04:16:13.846Z,122.38
2022-09-12T04:18:40.522Z,116.38
2022-09-12T04:21:08.237Z,120.05
2022-09-12T04:23:34.752Z,120.47
2022-09-12T04:26:01.860Z,114.05
2022-09-12T04:28:32.784Z,118.45
2022-09-12T04:31:03.978Z,121.63
2022-09-12T04:33:30.468Z,118.28
2022-09-12T04:35:56.629Z,118.32
2022-09-12T04:38:22.850Z,124.45
2022-09-12T04:40:49.027Z,119.22
2022-09-12T04:43:15.226Z,117.97
2022-09-12T04:45:41.462Z,108.97
2022-09-12T04:48:07.715Z,125.32
2022-09-12T04:50:33.902Z,119.85
2022-09-12T04:53:00.229Z,120.05
2022-09-12T04:55:26.489Z,123.05
2022-09-12T04:57:52.954Z,123.75
2022-09-12T05:00:19.166Z,122.93
2022-09-12T05:02:45.396Z,113.78
2022-09-12T05:05:11.676Z,109.28
2022-09-12T05:07:37.916Z,115.00
2022-09-12T05:10:04.500Z,114.32
2022-09-12T05:12:31.066Z,105.50
2022-09-12T05:14:57.298Z,104.50
2022-09-12T05:17:23.481Z,104.25
2022-09-12T05:19:49.779Z,97.45
2022-09-12T05:22:16.024Z,97.20
2022-09-12T05:24:47.290Z,87.75
2022-09-12T05:27:16.157Z,92.88
2022-09-12T05:29:42.982Z,88.47
2022-09-12T05:32:09.623Z,79.82
2022-09-12T05:34:35.924Z,80.82
2022-09-12T05:37:02.191Z,77.30
2022-09-12T05:39:28.385Z,68.82
2022-09-12T05:41:54.584Z,64.15
2022-09-12T05:44:20.918Z,59.03
2022-09-12T05:46:50.320Z,56.03
2022-09-12T05:49:16.657Z,56.55
2022-09-12T05:51:43.971Z,50.67
2022-09-12T05:54:11.885Z,50.80
2022-09-12T05:56:39.315Z,55.53
2022-09-12T05:59:06.698Z,54.70
2022-09-12T06:01:33.883Z,48.88
2022-09-12T06:04:01.550Z,52.00
2022-09-12T06:06:29.046Z,51.88
2022-09-12T06:09:01.981Z,45.70
2022-09-12T06:11:29.379Z,47.15
2022-09-12T06:13:56.906Z,44.95
2022-09-12T06:16:25.977Z,43.10
2022-09-12T06:18:53.723Z,43.05
2022-09-12T06:21:20.631Z,42.28
2022-09-12T06:23:47.947Z,43.05
2022-09-12T06:26:16.006Z,45.75
2022-09-12T06:28:42.878Z,40.08
2022-09-12T06:31:11.107Z,42.78
2022-09-12T06:33:38.614Z,39.58
2022-09-12T06:36:12.348Z,38.15
2022-09-12T06:38:39.369Z,35.25
2022-09-12T06:41:06.975Z,34.88
2022-09-12T06:43:33.761Z,34.10
2022-09-12T06:46:00.609Z,36.85
2022-09-12T06:48:27.622Z,35.03
2022-09-12T06:50:57.624Z,39.92
2022-09-12T06:53:24.357Z,31.60
2022-09-12T06:56:01.088Z,35.65
2022-09-12T06:58:27.906Z,37.72
2022-09-12T07:01:02.206Z,34.08
2022-09-12T07:03:28.534Z,34.58
2022-09-12T07:05:54.724Z,34.25
2022-09-12T07:08:21.007Z,32.83
2022-09-12T07:10:47.204Z,34.35
2022-09-12T07:13:14.058Z,34.45
2022-09-12T07:15:40.311Z,35.67
2022-09-12T07:18:06.632Z,36.60
2022-09-12T07:20:33.053Z,33.50
2022-09-12T07:22:59.892Z,35.65
2022-09-12T07:25:26.550Z,32.53
2022-09-12T07:27:52.999Z,33.03
2022-09-12T07:30:19.496Z,33.83
2022-09-12T07:32:45.683Z,33.75
2022-09-12T07:35:11.873Z,36.85
2022-09-12T07:37:38.207Z,33.53
2022-09-12T07:40:04.649Z,37.00
2022-09-12T07:42:31.164Z,32.22
2022-09-12T07:44:57.371Z,32.45
2022-09-12T07:47:23.578Z,33.70
2022-09-12T07:49:49.838Z,34.47
2022-09-12T07:52:16.021Z,34.42
2022-09-12T07:54:42.193Z,32.33
2022-09-12T07:57:08.588Z,35.92
2022-09-12T07:59:51.945Z,32.42
2022-09-12T08:02:19.441Z,30.08
2022-09-12T08:04:46.902Z,28.42
2022-09-12T08:07:13.133Z,28.25
2022-09-12T08:09:39.316Z,28.58
2022-09-12T08:12:05.693Z,28.55
2022-09-12T08:14:31.999Z,33.92
2022-09-12T08:16:58.227Z,29.02
2022-09-12T08:19:24.396Z,31.10
2022-09-12T08:21:50.635Z,28.60
2022-09-12T08:24:17.126Z,32.45
2022-09-12T08:26:43.342Z,27.38
2022-09-12T08:29:09.544Z,32.25
2022-09-12T08:31:36.896Z,30.42
2022-09-12T08:34:04.521Z,28.13
2022-09-12T08:36:30.949Z,27.90
2022-09-12T08:38:59.913Z,27.92
2022-09-12T08:41:30.166Z,29.67
2022-09-12T08:44:15.413Z,26.63
2022-09-12T08:49:10.396Z,27.75
2022-09-12T08:51:36.726Z,29.33
2022-09-12T08:54:04.497Z,27.13
2022-09-12T08:56:35.959Z,25.90
2022-09-12T08:59:02.764Z,23.70
2022-09-12T09:01:31.214Z,22.63
2022-09-12T09:04:26.932Z,26.80
2022-09-12T09:07:04.347Z,23.75
2022-09-12T09:09:39.551Z,23.33
2022-09-12T09:12:06.618Z,23.25
2022-09-12T09:14:51.774Z,26.23
2022-09-12T09:17:27.453Z,23.45
2022-09-12T09:20:05.480Z,23.75
2022-09-12T09:22:38.106Z,24.95
2022-09-12T09:25:27.635Z,21.67
2022-09-12T09:27:58.562Z,21.70
2022-09-12T09:30:24.793Z,20.48
2022-09-12T09:32:53.494Z,19.63
2022-09-12T09:35:22.717Z,21.85
2022-09-12T09:38:18.737Z,18.65
2022-09-12T09:40:51.137Z,20.80
2022-09-12T09:43:22.541Z,20.17
2022-09-12T09:45:49.543Z,23.00
2022-09-12T09:48:21.049Z,24.92
2022-09-12T09:50:48.919Z,17.98
2022-09-12T09:53:25.352Z,19.42
2022-09-12T09:55:53.301Z,19.00
2022-09-12T09:58:32.818Z,15.85
2022-09-12T10:01:03.629Z,16.92
2022-09-12T10:03:31.423Z,18.63
2022-09-12T10:05:59.874Z,18.45
2022-09-12T10:08:27.640Z,19.73
2022-09-12T10:11:01.792Z,15.95
2022-09-12T10:13:32.104Z,13.10
2022-09-12T10:16:02.961Z,16.95
2022-09-12T10:18:37.280Z,15.25
2022-09-12T10:21:12.669Z,13.88
2022-09-12T10:23:41.017Z,13.02
2022-09-12T10:26:12.469Z,11.68
2022-09-12T10:28:40.368Z,15.57
2022-09-12T10:31:08.564Z,11.52
2022-09-12T10:33:53.681Z,10.55
2022-09-12T10:36:20.711Z,12.00
2022-09-12T10:38:55.188Z,10.98
2022-09-12T10:41:21.902Z,11.32
2022-09-12T10:43:48.665Z,11.73
2022-09-12T10:46:15.556Z,8.75
2022-09-12T10:48:42.409Z,9.35
2022-09-12T10:51:28.994Z,9.30
2022-09-12T10:53:57.450Z,9.98
2022-09-12T10:56:25.666Z,9.23
2022-09-12T10:58:53.557Z,6.55
2022-09-12T11:01:25.613Z,11.27
2022-09-12T11:03:59.321Z,8.38
2022-09-12T11:06:30.362Z,5.68
2022-09-12T11:09:09.844Z,7.13
2022-09-12T11:11:45.041Z,10.10
2022-09-12T11:14:25.080Z,7.53
2022-09-12T11:17:03.406Z,8.73
2022-09-12T11:19:37.160Z,7.78
2022-09-12T11:22:09.416Z,5.95
2022-09-12T11:24:47.695Z,5.57
2022-09-12T11:27:32.308Z,7.18
2022-09-12T11:30:01.771Z,8.00
2022-09-12T11:32:41.338Z,5.47
2022-09-12T11:35:07.871Z,5.57
2022-09-12T11:37:37.210Z,5.13
2022-09-12T11:40:22.766Z,6.38
2022-09-12T11:42:51.990Z,4.97
2022-09-12T11:45:28.286Z,5.03
2022-09-12T11:47:57.710Z,4.28
2022-09-12T11:50:28.547Z,5.07
2022-09-12T11:53:07.502Z,4.65
2022-09-12T11:55:43.446Z,6.30
2022-09-12T11:58:10.877Z,3.72
2022-09-12T12:00:40.945Z,3.97
2022-09-12T12:03:15.040Z,5.07
2022-09-12T12:05:44.330Z,3.95
2022-09-12T12:08:10.965Z,3.00
2022-09-12T12:10:38.936Z,3.42
2022-09-12T12:13:13.364Z,3.72
2022-09-12T12:15:45.243Z,3.42
2022-09-12T12:18:16.731Z,4.05
2022-09-12T12:20:43.032Z,3.90
2022-09-12T12:23:22.653Z,4.13
2022-09-12T12:25:51.971Z,3.50
2022-09-12T12:28:51.095Z,5.13
2022-09-12T12:31:17.905Z,4.50
2022-09-12T12:33:44.117Z,3.00
2022-09-12T12:36:11.346Z,5.32
2022-09-12T12:38:38.752Z,5.85
2022-09-12T12:41:17.195Z,3.78
2022-09-12T12:43:50.710Z,3.97
2022-09-12T12:46:18.175Z,5.43
2022-09-12T12:48:47.428Z,3.88
2022-09-12T12:51:25.440Z,5.13
2022-09-12T12:53:52.445Z,5.25
2022-09-12T12:56:26.426Z,5.57
2022-09-12T12:59:04.469Z,4.77
2022-09-12T13:01:31.213Z,3.85
2022-09-12T13:04:05.506Z,4.00
2022-09-12T13:06:35.919Z,3.10
2022-09-12T13:09:14.261Z,5.10
2022-09-12T13:11:41.057Z,3.60
2022-09-12T13:14:27.238Z,3.55
2022-09-12T13:16:54.868Z,4.70
2022-09-12T13:19:24.313Z,4.32
2022-09-12T13:21:57.225Z,3.80
2022-09-12T13:24:23.756Z,4.10
2022-09-12T13:26:49.964Z,3.97
2022-09-12T13:29:16.222Z,4.60
2022-09-12T13:31:46.734Z,3.75
2022-09-12T13:34:19.947Z,3.70
2022-09-12T13:37:12.576Z,3.83
2022-09-12T13:39:49.815Z,5.03
2022-09-12T13:42:26.045Z,4.60
2022-09-12T13:45:12.855Z,4.22
2022-09-12T13:47:58.827Z,3.67
2022-09-12T13:50:26.803Z,4.53
2022-09-12T13:52:54.879Z,3.45
2022-09-12T13:55:30.147Z,6.00
2022-09-12T13:57:58.069Z,3.83
2022-09-12T14:00:24.511Z,5.68
2022-09-12T14:03:10.722Z,3.38
2022-09-12T14:05:38.485Z,3.40
2022-09-12T14:08:06.838Z,5.30
2022-09-12T14:10:34.490Z,12.90
2022-09-12T14:13:05.380Z,4.22
2022-09-12T14:15:32.680Z,3.88
2022-09-12T14:18:01.419Z,3.60
2022-09-12T14:20:34.394Z,3.58
2022-09-12T14:23:06.467Z,6.00
2022-09-12T14:25:37.213Z,5.13
2022-09-12T14:28:03.730Z,4.65
2022-09-12T14:30:35.009Z,4.82
2022-09-12T14:33:10.146Z,3.40
2022-09-12T14:35:43.465Z,4.28
2022-09-12T14:38:17.737Z,5.18
2022-09-12T14:41:13.471Z,3.60
2022-09-12T14:43:44.474Z,4.88
2022-09-12T14:46:19.915Z,4.80
2022-09-12T14:48:48.675Z,5.32
2022-09-12T14:51:35.043Z,3.17
2022-09-12T14:54:01.332Z,3.20
2022-09-12T14:56:38.482Z,3.50
2022-09-12T14:59:37.299Z,5.93
2022-09-12T15:02:24.570Z,3.47
2022-09-12T15:04:52.573Z,5.35
2022-09-12T15:07:28.186Z,3.58
2022-09-12T15:09:54.443Z,8.25
2022-09-12T15:12:20.695Z,3.42
2022-09-12T15:14:47.020Z,3.65
2022-09-12T15:17:13.235Z,3.72
2022-09-12T15:19:39.417Z,5.93
2022-09-12T15:22:05.684Z,5.15
2022-09-12T15:24:31.971Z,5.38
2022-09-12T15:26:58.350Z,3.45
2022-09-12T15:29:24.766Z,5.05
2022-09-12T15:31:51.107Z,7.20
2022-09-12T15:34:17.293Z,4.47
2022-09-12T15:36:43.503Z,3.90
2022-09-12T15:39:10.518Z,3.33
2022-09-12T15:41:37.831Z,3.85
2022-09-12T15:44:04.981Z,5.75
2022-09-12T15:46:31.351Z,4.75
2022-09-12T15:48:57.676Z,9.23
2022-09-12T15:51:23.941Z,8.30
2022-09-12T15:53:50.920Z,3.80
2022-09-12T15:56:18.195Z,4.80
2022-09-12T15:58:57.765Z,7.40
2022-09-12T16:01:24.912Z,3.38
2022-09-12T16:03:51.245Z,4.60
2022-09-12T16:06:17.456Z,3.47
2022-09-12T16:08:43.865Z,3.20
2022-09-12T16:11:39.297Z,4.50
2022-09-12T16:14:05.917Z,3.35
2022-09-12T16:16:32.409Z,3.60
2022-09-12T16:18:58.610Z,3.72
2022-09-12T16:21:25.198Z,2.83
2022-09-12T16:23:51.453Z,2.95
2022-09-12T16:26:17.698Z,3.13
2022-09-12T16:28:44.407Z,4.65
2022-09-12T16:31:11.594Z,3.72
2022-09-12T16:33:38.419Z,4.53
2022-09-12T16:36:09.220Z,4.22
2022-09-12T16:38:40.259Z,4.38
2022-09-12T16:41:06.707Z,3.78
2022-09-12T16:43:33.789Z,4.75
2022-09-12T16:46:00.903Z,3.70
2022-09-12T16:48:27.181Z,2.80
2022-09-12T16:50:57.824Z,3.70
2022-09-12T16:53:24.189Z,3.17
2022-09-12T16:55:51.090Z,4.85
2022-09-12T16:58:17.311Z,5.60
2022-09-12T17:00:43.517Z,5.40
2022-09-12T17:03:09.950Z,6.28
2022-09-12T17:05:36.295Z,3.20
2022-09-12T17:08:02.882Z,5.47
2022-09-12T17:10:30.625Z,6.57
2022-09-12T17:12:57.160Z,2.63
2022-09-12T17:15:23.506Z,3.97
2022-09-12T17:17:51.994Z,4.80
2022-09-12T17:20:18.218Z,2.65
2022-09-12T17:22:44.443Z,3.92
2022-09-12T17:25:10.653Z,3.03
2022-09-12T17:27:37.253Z,4.53
2022-09-12T17:30:04.362Z,3.17
2022-09-12T17:32:30.548Z,2.92
2022-09-12T17:34:57.128Z,3.53
2022-09-12T17:37:23.409Z,2.30
2022-09-12T17:39:49.809Z,2.47
2022-09-12T17:42:16.087Z,3.35
2022-09-12T17:44:42.313Z,2.97
2022-09-12T17:47:08.512Z,2.08
2022-09-12T17:49:36.558Z,2.30
2022-09-12T17:52:02.871Z,2.50
2022-09-12T17:54:29.121Z,3.30
2022-09-12T17:56:56.162Z,6.38
2022-09-12T17:59:24.602Z,3.05
2022-09-12T18:02:09.293Z,4.28
2022-09-12T18:04:35.704Z,3.90
2022-09-12T18:07:02.027Z,3.20
2022-09-12T18:09:28.389Z,4.55
2022-09-12T18:11:54.660Z,3.20
2022-09-12T18:14:20.953Z,4.07
2022-09-12T18:16:47.477Z,5.05
2022-09-12T18:19:14.097Z,5.72
2022-09-12T18:21:40.905Z,5.13
2022-09-12T18:24:07.133Z,6.95
2022-09-12T18:26:33.529Z,3.90
2022-09-12T18:28:59.801Z,2.97
2022-09-12T18:31:28.674Z,4.50
2022-09-12T18:33:55.581Z,4.07
2022-09-12T18:36:22.150Z,4.93
2022-09-12T18:38:48.575Z,3.85
2022-09-12T18:41:16.143Z,6.22
2022-09-12T18:43:42.416Z,4.43
2022-09-12T18:46:13.271Z,6.75
2022-09-12T18:48:39.523Z,4.82
2022-09-12T18:51:11.120Z,5.97
2022-09-12T18:53:37.822Z,4.32
2022-09-12T18:56:04.736Z,8.65
2022-09-12T18:58:30.954Z,4.13
2022-09-12T19:00:58.428Z,5.53
2022-09-12T19:03:24.857Z,5.40
2022-09-12T19:05:51.309Z,2.78
2022-09-12T19:08:18.089Z,2.78
2022-09-12T19:10:47.327Z,2.85
2022-09-12T19:13:13.675Z,3.05
2022-09-12T19:15:40.121Z,2.38
2022-09-12T19:18:06.396Z,2.28
2022-09-12T19:20:35.094Z,2.03
2022-09-12T19:23:01.301Z,5.03
2022-09-12T19:25:27.483Z,1.80
2022-09-12T19:27:53.671Z,5.90
2022-09-12T19:30:19.873Z,6.55
2022-09-12T19:32:46.103Z,3.05
2022-09-12T19:35:14.071Z,4.25
2022-09-12T19:37:40.265Z,2.03
2022-09-12T19:40:07.685Z,2.45
2022-09-12T19:42:34.011Z,2.00
2022-09-12T19:45:00.201Z,3.95
2022-09-12T19:47:26.519Z,3.35
2022-09-12T19:49:52.724Z,3.92
2022-09-12T19:52:18.883Z,1.80
2022-09-12T19:54:45.388Z,2.65
2022-09-12T19:57:11.611Z,1.95
2022-09-12T19:59:37.801Z,3.92
2022-09-12T20:02:04.197Z,4.60
2022-09-12T20:04:31.702Z,2.63
2022-09-12T20:06:57.891Z,3.33
2022-09-12T20:09:24.377Z,3.25
2022-09-12T20:11:50.584Z,5.93
2022-09-12T20:14:16.783Z,3.88
2022-09-12T20:16:45.379Z,2.30
2022-09-12T20:19:11.822Z,2.55
2022-09-12T20:21:38.061Z,4.50
2022-09-12T20:24:05.529Z,3.08
2022-09-12T20:26:31.892Z,5.97
2022-09-12T20:28:58.206Z,5.15
2022-09-12T20:31:24.430Z,5.07
2022-09-12T20:33:52.143Z,4.35
2022-09-12T20:36:19.362Z,3.95
2022-09-12T20:38:50.033Z,5.03
2022-09-12T20:41:16.552Z,3.30
2022-09-12T20:43:42.766Z,4.38
2022-09-12T20:46:10.234Z,3.17
2022-09-12T20:48:37.317Z,5.38
2022-09-12T20:51:03.753Z,6.07
2022-09-12T20:53:34.293Z,3.35
2022-09-12T20:56:01.214Z,4.50
2022-09-12T20:58:27.431Z,5.82
2022-09-12T21:00:53.638Z,3.88
2022-09-12T21:03:20.013Z,4.10
2022-09-12T21:05:46.421Z,2.92
2022-09-12T21:08:13.197Z,3.95
2022-09-12T21:10:45.282Z,3.75
2022-09-12T21:13:11.924Z,3.65
2022-09-12T21:15:38.779Z,3.97
2022-09-12T21:18:05.208Z,5.35
2022-09-12T21:20:31.731Z,7.43
2022-09-12T21:22:57.963Z,3.47
2022-09-12T21:25:24.202Z,4.60
2022-09-12T21:27:50.431Z,4.03
2022-09-12T21:30:16.806Z,2.85
2022-09-12T21:32:43.013Z,3.53
2022-09-12T21:35:09.327Z,2.97
2022-09-12T21:37:35.556Z,3.80
2022-09-12T21:40:01.890Z,2.60
2022-09-12T21:42:28.128Z,5.00
2022-09-12T21:44:54.510Z,3.80
2022-09-12T21:47:20.665Z,4.03
2022-09-12T21:49:46.847Z,5.00
2022-09-12T21:52:13.016Z,3.20
2022-09-12T21:54:39.385Z,4.15
2022-09-12T21:57:05.862Z,5.93
2022-09-12T21:59:32.030Z,4.53
2022-09-12T22:01:58.478Z,3.13
2022-09-12T22:04:25.061Z,2.90
2022-09-12T22:06:51.229Z,3.38
2022-09-12T22:09:17.494Z,4.28
2022-09-12T22:11:43.963Z,3.58
2022-09-12T22:14:10.451Z,6.85
2022-09-12T22:16:36.637Z,4.15
2022-09-12T22:19:03.135Z,3.22
2022-09-12T22:21:29.298Z,3.92
2022-09-12T22:24:14.028Z,4.28
2022-09-12T22:26:43.839Z,4.35
2022-09-12T22:29:10.968Z,6.82
2022-09-12T22:31:37.564Z,4.38
2022-09-12T22:34:03.945Z,3.35
2022-09-12T22:36:31.373Z,2.65
2022-09-12T22:38:58.869Z,7.05
2022-09-12T22:41:25.178Z,4.35
2022-09-12T22:43:51.414Z,3.00
2022-09-12T22:46:17.640Z,5.65
2022-09-12T22:48:43.877Z,2.55
2022-09-12T22:51:10.543Z,6.00
2022-09-12T22:53:37.281Z,3.13
2022-09-12T22:56:04.977Z,4.30
2022-09-12T22:58:31.905Z,3.28
2022-09-12T23:00:58.273Z,9.52
2022-09-12T23:03:24.570Z,4.50
2022-09-12T23:05:50.828Z,3.42
2022-09-12T23:08:23.240Z,4.60
2022-09-12T23:10:49.542Z,4.95
2022-09-12T23:13:15.751Z,2.78
2022-09-12T23:15:41.932Z,3.72
2022-09-12T23:18:08.389Z,3.30
2022-09-12T23:20:34.579Z,2.83
2022-09-12T23:23:00.799Z,5.78
2022-09-12T23:25:27.048Z,2.80
2022-09-12T23:27:53.842Z,4.93
2022-09-12T23:30:21.663Z,3.63
2022-09-12T23:32:48.927Z,7.35
2022-09-12T23:35:17.935Z,4.45
2022-09-12T23:37:44.176Z,5.22
2022-09-12T23:40:10.665Z,10.10
2022-09-12T23:42:37.383Z,5.80
2022-09-12T23:45:04.315Z,5.70
2022-09-12T23:47:30.559Z,7.28
2022-09-12T23:49:56.805Z,4.10
2022-09-12T23:52:23.022Z,6.38
2022-09-12T23:54:49.238Z,3.90
2022-09-12T23:57:15.434Z,8.38
2022-09-12T23:59:41.627Z,3.92
